Time;durP1;ratioP1;P1;durP2;ratioP2;P2;SDS_P1;SDS_P2;PMS_P1;PMS_P2;Temp;Humidity;BMP_temperature;BMP_pressure;BME280_temperature;BME280_humidity;BME280_pressure;Samples;Min_cycle;Max_cycle;Signal;HPM_P1;HPM_P2
2021/08/30 00:01:40;;;;;;;9.50;6.25;;;;;;;;;;5013535;28;20186;-68
2021/08/30 00:04:06;;;;;;;8.18;6.30;;;;;;;;;;5013242;28;20301;-67
2021/08/30 00:06:31;;;;;;;9.77;6.23;;;;;;;;;;5013568;28;20237;-68
2021/08/30 00:08:56;;;;;;;6.43;5.25;;;;;;;;;;5013098;28;20499;-68
2021/08/30 00:11:21;;;;;;;7.75;5.75;;;;;;;;;;5013460;28;20661;-68
2021/08/30 00:13:47;;;;;;;6.75;6.07;;;;;;;;;;5013244;28;20186;-68
2021/08/30 00:16:12;;;;;;;11.80;7.63;;;;;;;;;;5012627;28;20202;-68
2021/08/30 00:18:37;;;;;;;10.20;6.00;;;;;;;;;;5012482;28;20175;-68
2021/08/30 00:21:02;;;;;;;11.55;6.40;;;;;;;;;;5013304;28;20187;-68
2021/08/30 00:23:28;;;;;;;8.30;6.35;;;;;;;;;;5013075;28;20186;-67
2021/08/30 00:25:53;;;;;;;8.68;5.80;;;;;;;;;;4996003;28;20580;-68
2021/08/30 00:28:18;;;;;;;12.95;7.13;;;;;;;;;;5020645;28;20556;-67
2021/08/30 00:30:43;;;;;;;7.80;6.10;;;;;;;;;;5012830;28;20237;-68
2021/08/30 00:33:08;;;;;;;8.90;6.07;;;;;;;;;;5013036;28;20179;-68
2021/08/30 00:35:34;;;;;;;8.13;5.43;;;;;;;;;;5016371;28;20199;-68
2021/08/30 00:37:59;;;;;;;6.68;5.85;;;;;;;;;;5012914;28;20447;-68
2021/08/30 00:40:24;;;;;;;8.33;6.33;;;;;;;;;;5012438;28;20178;-69
2021/08/30 00:42:49;;;;;;;7.80;6.57;;;;;;;;;;5012936;28;20404;-68
2021/08/30 00:45:15;;;;;;;9.60;6.20;;;;;;;;;;5012500;28;20199;-68
2021/08/30 00:47:44;;;;;;;6.60;5.90;;;;;;;;;;5012740;28;20187;-68
2021/08/30 00:50:10;;;;;;;6.22;5.28;;;;;;;;;;5011856;28;20182;-69
2021/08/30 00:52:36;;;;;;;8.80;6.20;;;;;;;;;;5012604;28;20306;-68
2021/08/30 00:55:01;;;;;;;7.65;5.80;;;;;;;;;;5012339;28;20488;-68
2021/08/30 00:57:26;;;;;;;7.93;6.43;;;;;;;;;;5014748;28;20186;-68
2021/08/30 00:59:52;;;;;;;7.32;5.82;;;;;;;;;;5012194;28;20265;-69
2021/08/30 01:02:17;;;;;;;7.00;6.07;;;;;;;;;;5012395;28;20190;-68
2021/08/30 01:04:43;;;;;;;6.90;5.28;;;;;;;;;;5011999;28;20741;-68
2021/08/30 01:07:17;;;;;;;8.02;6.18;;;;;;;;;;5012461;28;20183;-68
2021/08/30 01:10:01;;;;;;;6.65;5.60;;;;;;;;;;5011859;28;20186;-68
2021/08/30 01:12:29;;;;;;;6.65;5.95;;;;;;;;;;5007014;28;20202;-68
2021/08/30 01:15:19;;;;;;;9.27;6.57;;;;;;;;;;5012121;28;20203;-68
2021/08/30 01:17:45;;;;;;;9.45;7.22;;;;;;;;;;5009685;28;20211;-68
2021/08/30 01:20:11;;;;;;;8.05;6.35;;;;;;;;;;5011576;28;20711;-68
2021/08/30 01:22:38;;;;;;;8.98;6.80;;;;;;;;;;5012100;28;20215;-68
2021/08/30 01:25:03;;;;;;;12.13;7.35;;;;;;;;;;5012043;28;20289;-68
2021/08/30 01:27:29;;;;;;;8.90;7.20;;;;;;;;;;5011897;28;20202;-68
2021/08/30 01:30:05;;;;;;;8.50;6.32;;;;;;;;;;5011006;28;20209;-69
2021/08/30 01:32:30;;;;;;;10.20;6.88;;;;;;;;;;5010362;28;20237;-68
2021/08/30 01:34:57;;;;;;;12.07;7.70;;;;;;;;;;5011822;28;20227;-68
2021/08/30 01:37:22;;;;;;;9.95;7.22;;;;;;;;;;5010122;28;20459;-69
2021/08/30 01:39:48;;;;;;;7.72;6.28;;;;;;;;;;5011451;28;20175;-69
2021/08/30 01:42:13;;;;;;;9.65;7.15;;;;;;;;;;5011532;28;20233;-69
2021/08/30 01:44:38;;;;;;;10.05;6.97;;;;;;;;;;5011779;28;20203;-68
2021/08/30 01:47:03;;;;;;;11.93;7.32;;;;;;;;;;5012130;28;20262;-68
2021/08/30 01:49:29;;;;;;;9.38;7.63;;;;;;;;;;5011746;28;20190;-69
2021/08/30 01:51:56;;;;;;;9.10;7.10;;;;;;;;;;4996472;28;20207;-69
2021/08/30 01:54:22;;;;;;;10.90;6.82;;;;;;;;;;5013030;28;20587;-69
2021/08/30 01:56:50;;;;;;;8.30;6.85;;;;;;;;;;5013525;28;20171;-69
2021/08/30 02:02:00;;;;;;;9.77;7.50;;;;;;;;;;5012862;28;20268;-69
2021/08/30 02:04:26;;;;;;;8.38;7.47;;;;;;;;;;5012912;28;20206;-69
2021/08/30 02:06:51;;;;;;;9.00;7.38;;;;;;;;;;5028500;23;20233;-70
2021/08/30 02:09:16;;;;;;;8.73;7.45;;;;;;;;;;5011704;28;20187;-69
2021/08/30 02:11:41;;;;;;;11.38;7.05;;;;;;;;;;4994164;28;20289;-70
2021/08/30 02:14:07;;;;;;;10.15;7.88;;;;;;;;;;5012053;28;20258;-69
2021/08/30 02:16:32;;;;;;;12.45;7.82;;;;;;;;;;5011481;28;20195;-69
2021/08/30 02:19:02;;;;;;;10.45;7.70;;;;;;;;;;5010757;28;20183;-69
2021/08/30 02:21:50;;;;;;;11.50;7.78;;;;;;;;;;5005920;28;20194;-69
2021/08/30 02:24:19;;;;;;;11.57;6.97;;;;;;;;;;5016475;28;20282;-69
2021/08/30 02:26:44;;;;;;;9.38;7.22;;;;;;;;;;5011902;28;20221;-69
2021/08/30 02:29:11;;;;;;;11.27;7.33;;;;;;;;;;5018822;28;20178;-69
2021/08/30 02:31:37;;;;;;;10.30;7.57;;;;;;;;;;5015851;28;20467;-69
2021/08/30 02:34:03;;;;;;;12.63;8.40;;;;;;;;;;5004093;28;20182;-69
2021/08/30 02:36:28;;;;;;;11.35;7.90;;;;;;;;;;5011459;28;20202;-69
2021/08/30 02:38:54;;;;;;;9.77;7.80;;;;;;;;;;5011619;28;20240;-70
2021/08/30 02:41:20;;;;;;;10.50;8.07;;;;;;;;;;5021419;28;20175;-69
2021/08/30 02:43:46;;;;;;;11.52;7.35;;;;;;;;;;5017776;28;20179;-69
2021/08/30 02:46:11;;;;;;;10.40;7.32;;;;;;;;;;5000084;28;20336;-70
2021/08/30 02:48:38;;;;;;;10.25;8.00;;;;;;;;;;5019416;28;20606;-69
2021/08/30 02:51:04;;;;;;;9.27;7.78;;;;;;;;;;5016649;28;20199;-70
2021/08/30 02:53:29;;;;;;;10.27;7.75;;;;;;;;;;5016988;28;20189;-69
2021/08/30 02:55:55;;;;;;;11.20;8.07;;;;;;;;;;5015656;28;20248;-69
2021/08/30 02:58:20;;;;;;;12.77;8.60;;;;;;;;;;5016805;28;20187;-70
2021/08/30 03:00:46;;;;;;;10.27;8.73;;;;;;;;;;4999028;28;20175;-69
2021/08/30 03:03:11;;;;;;;13.20;10.10;;;;;;;;;;5016637;28;20433;-70
2021/08/30 03:05:38;;;;;;;13.90;9.63;;;;;;;;;;5017573;28;20202;-70
2021/08/30 03:08:03;;;;;;;12.57;9.70;;;;;;;;;;4998464;28;20174;-70
2021/08/30 03:10:29;;;;;;;14.73;10.40;;;;;;;;;;5017686;28;20646;-70
2021/08/30 03:12:55;;;;;;;12.82;10.30;;;;;;;;;;5025140;28;20798;-69
2021/08/30 03:15:23;;;;;;;14.70;10.02;;;;;;;;;;5003010;28;20195;-70
2021/08/30 03:17:49;;;;;;;14.02;10.98;;;;;;;;;;5018664;28;20727;-70
2021/08/30 03:20:19;;;;;;;15.30;11.20;;;;;;;;;;5022090;28;20265;-70
2021/08/30 03:22:46;;;;;;;14.98;10.82;;;;;;;;;;5020343;28;20186;-70
2021/08/30 03:25:14;;;;;;;16.98;11.13;;;;;;;;;;4998666;28;20226;-70
2021/08/30 03:27:43;;;;;;;14.70;11.15;;;;;;;;;;5014999;28;20175;-69
2021/08/30 03:30:09;;;;;;;14.15;10.32;;;;;;;;;;5014163;28;20175;-70
2021/08/30 03:32:34;;;;;;;18.35;12.05;;;;;;;;;;5022084;28;20206;-70
2021/08/30 03:35:00;;;;;;;14.95;11.48;;;;;;;;;;5019230;28;20190;-70
2021/08/30 03:37:25;;;;;;;14.20;11.43;;;;;;;;;;5013984;28;20175;-70
2021/08/30 03:39:51;;;;;;;16.60;11.80;;;;;;;;;;5016466;28;20216;-69
2021/08/30 03:42:16;;;;;;;19.65;12.45;;;;;;;;;;5019233;28;20179;-69
2021/08/30 03:44:41;;;;;;;15.13;10.93;;;;;;;;;;5015815;28;20193;-69
2021/08/30 03:47:07;;;;;;;14.95;10.85;;;;;;;;;;5017024;28;20179;-70
2021/08/30 03:49:33;;;;;;;20.55;13.15;;;;;;;;;;5014197;28;20179;-70
2021/08/30 03:51:58;;;;;;;16.80;11.80;;;;;;;;;;5014411;28;20272;-70
2021/08/30 03:54:24;;;;;;;14.55;12.02;;;;;;;;;;5014701;28;20179;-70
2021/08/30 03:56:49;;;;;;;18.58;12.23;;;;;;;;;;5014210;28;20193;-70
2021/08/30 03:59:18;;;;;;;19.80;12.20;;;;;;;;;;5015690;28;20357;-70
2021/08/30 04:01:45;;;;;;;16.27;12.00;;;;;;;;;;5018209;28;20559;-70
2021/08/30 04:04:16;;;;;;;16.85;12.45;;;;;;;;;;5014094;28;20225;-70
2021/08/30 04:06:43;;;;;;;20.60;12.60;;;;;;;;;;5016547;28;20214;-70
2021/08/30 04:09:08;;;;;;;14.82;11.55;;;;;;;;;;4997323;28;20255;-70
2021/08/30 04:11:33;;;;;;;17.48;12.52;;;;;;;;;;4999052;28;20194;-70
2021/08/30 04:13:58;;;;;;;17.42;11.88;;;;;;;;;;5014930;28;20167;-70
2021/08/30 04:16:24;;;;;;;16.42;12.63;;;;;;;;;;5014932;28;20195;-70
2021/08/30 04:18:49;;;;;;;18.20;14.60;;;;;;;;;;5014056;28;20537;-70
2021/08/30 04:21:14;;;;;;;15.30;12.13;;;;;;;;;;5015563;28;20414;-70
2021/08/30 04:23:39;;;;;;;19.58;12.93;;;;;;;;;;5014560;28;20186;-70
2021/08/30 04:26:04;;;;;;;18.38;14.55;;;;;;;;;;5013997;28;20219;-70
2021/08/30 04:28:30;;;;;;;18.40;13.17;;;;;;;;;;5016497;28;20183;-70
2021/08/30 04:30:55;;;;;;;18.25;13.30;;;;;;;;;;5000060;28;20443;-70
2021/08/30 04:33:22;;;;;;;16.25;12.73;;;;;;;;;;4996893;28;20182;-69
2021/08/30 04:35:47;;;;;;;22.95;13.60;;;;;;;;;;5014367;28;20195;-70
2021/08/30 04:38:13;;;;;;;19.98;13.50;;;;;;;;;;5013538;28;20175;-69
2021/08/30 04:40:39;;;;;;;18.38;12.98;;;;;;;;;;5013677;28;20171;-70
2021/08/30 04:43:04;;;;;;;17.83;12.27;;;;;;;;;;5012796;28;20190;-70
2021/08/30 04:45:29;;;;;;;17.20;12.55;;;;;;;;;;5016924;28;20207;-70
2021/08/30 04:47:54;;;;;;;16.77;12.68;;;;;;;;;;5015521;28;20179;-70
2021/08/30 04:50:19;;;;;;;20.38;13.23;;;;;;;;;;5000612;28;20228;-70
2021/08/30 04:52:44;;;;;;;15.73;12.77;;;;;;;;;;5014684;28;20206;-70
2021/08/30 04:55:11;;;;;;;16.65;12.82;;;;;;;;;;5016455;28;20539;-70
2021/08/30 04:57:36;;;;;;;16.85;12.93;;;;;;;;;;5015238;28;20249;-70
2021/08/30 05:00:01;;;;;;;19.17;13.40;;;;;;;;;;5017161;28;20209;-69
2021/08/30 05:02:27;;;;;;;17.80;13.93;;;;;;;;;;5012749;28;20185;-70
2021/08/30 05:04:55;;;;;;;18.65;13.98;;;;;;;;;;5015506;28;20260;-70
2021/08/30 05:07:20;;;;;;;20.85;13.57;;;;;;;;;;5013975;28;20261;-70
2021/08/30 05:09:46;;;;;;;16.70;13.38;;;;;;;;;;5016949;28;20199;-70
2021/08/30 05:12:11;;;;;;;20.00;14.97;;;;;;;;;;4994407;28;20289;-69
2021/08/30 05:14:36;;;;;;;25.52;16.17;;;;;;;;;;5014321;28;20411;-71
2021/08/30 05:17:01;;;;;;;21.80;15.52;;;;;;;;;;5014012;28;20191;-69
2021/08/30 05:19:26;;;;;;;23.35;15.90;;;;;;;;;;5015093;28;20201;-70
2021/08/30 05:21:52;;;;;;;21.70;16.07;;;;;;;;;;5014100;28;20178;-70
2021/08/30 05:24:17;;;;;;;25.30;16.67;;;;;;;;;;5015219;28;20934;-69
2021/08/30 05:26:42;;;;;;;24.20;17.38;;;;;;;;;;5012424;28;20240;-69
2021/08/30 05:29:07;;;;;;;25.60;17.02;;;;;;;;;;5012431;28;20249;-70
2021/08/30 05:31:33;;;;;;;20.25;15.75;;;;;;;;;;5016857;28;20210;-70
2021/08/30 05:33:58;;;;;;;21.52;16.13;;;;;;;;;;5004455;28;20640;-70
2021/08/30 05:36:24;;;;;;;22.13;15.05;;;;;;;;;;5017826;28;20214;-70
2021/08/30 05:38:50;;;;;;;22.17;15.27;;;;;;;;;;4997819;28;20184;-70
2021/08/30 05:41:15;;;;;;;23.00;15.02;;;;;;;;;;5012180;28;20613;-70
2021/08/30 05:43:40;;;;;;;20.33;13.93;;;;;;;;;;5011800;28;20221;-70
2021/08/30 05:46:06;;;;;;;21.35;15.32;;;;;;;;;;4994315;28;20198;-69
2021/08/30 05:48:31;;;;;;;19.45;14.57;;;;;;;;;;5014976;28;20186;-69
2021/08/30 05:50:56;;;;;;;20.80;14.52;;;;;;;;;;5017289;28;20201;-69
2021/08/30 05:53:21;;;;;;;23.77;15.38;;;;;;;;;;5016515;28;20221;-70
2021/08/30 05:55:46;;;;;;;19.17;14.25;;;;;;;;;;5011888;28;20677;-69
2021/08/30 05:58:12;;;;;;;19.30;14.50;;;;;;;;;;5011973;28;20261;-70
2021/08/30 06:00:37;;;;;;;21.60;14.15;;;;;;;;;;5011977;28;20186;-70
2021/08/30 06:03:02;;;;;;;18.07;15.07;;;;;;;;;;5012401;28;20179;-70
2021/08/30 06:05:27;;;;;;;18.15;13.13;;;;;;;;;;5011341;28;20984;-70
2021/08/30 06:07:52;;;;;;;20.38;15.35;;;;;;;;;;5011884;28;20187;-70
2021/08/30 06:10:18;;;;;;;20.13;14.30;;;;;;;;;;5016090;28;20194;-69
2021/08/30 06:12:43;;;;;;;19.92;13.50;;;;;;;;;;5011742;28;20451;-70
2021/08/30 06:15:08;;;;;;;20.73;13.93;;;;;;;;;;5018235;28;20190;-70
2021/08/30 06:17:34;;;;;;;22.92;13.40;;;;;;;;;;5012016;28;20175;-70
2021/08/30 06:19:59;;;;;;;18.80;14.10;;;;;;;;;;5002730;28;20206;-69
2021/08/30 06:22:24;;;;;;;27.40;13.82;;;;;;;;;;5012937;28;20784;-73
2021/08/30 06:24:50;;;;;;;19.70;12.85;;;;;;;;;;5015774;28;20258;-70
2021/08/30 06:27:17;;;;;;;17.45;13.63;;;;;;;;;;4994294;28;20187;-70
2021/08/30 06:29:42;;;;;;;20.70;12.63;;;;;;;;;;5016416;28;20179;-70
2021/08/30 06:32:08;;;;;;;23.35;13.32;;;;;;;;;;5015847;28;20234;-70
2021/08/30 06:34:33;;;;;;;19.13;12.48;;;;;;;;;;5020165;28;20182;-70
2021/08/30 06:36:58;;;;;;;18.20;12.10;;;;;;;;;;5018961;28;20676;-69
2021/08/30 06:39:23;;;;;;;18.13;12.75;;;;;;;;;;5018564;28;20178;-70
2021/08/30 06:41:48;;;;;;;21.65;12.60;;;;;;;;;;5019227;28;20186;-70
2021/08/30 06:44:14;;;;;;;19.83;12.20;;;;;;;;;;5012016;28;20187;-70
2021/08/30 06:46:39;;;;;;;16.57;12.07;;;;;;;;;;5013499;28;20205;-69
2021/08/30 06:49:04;;;;;;;21.17;12.57;;;;;;;;;;5020641;28;20833;-70
2021/08/30 06:51:29;;;;;;;17.92;12.52;;;;;;;;;;5013795;28;20210;-70
2021/08/30 06:53:54;;;;;;;16.55;12.43;;;;;;;;;;5011618;28;20182;-71
2021/08/30 06:56:20;;;;;;;19.80;13.00;;;;;;;;;;5012448;28;20191;-70
2021/08/30 06:58:45;;;;;;;19.40;11.47;;;;;;;;;;5012533;28;20652;-69
2021/08/30 07:01:10;;;;;;;16.50;11.43;;;;;;;;;;5013317;28;20700;-70
2021/08/30 07:03:35;;;;;;;14.15;10.80;;;;;;;;;;5012403;28;20911;-70
2021/08/30 07:06:00;;;;;;;16.73;11.63;;;;;;;;;;5011473;28;20231;-71
2021/08/30 07:08:26;;;;;;;17.23;11.45;;;;;;;;;;5014000;28;20420;-71
2021/08/30 07:10:51;;;;;;;16.40;11.82;;;;;;;;;;5015896;28;20194;-70
2021/08/30 07:13:16;;;;;;;17.87;10.83;;;;;;;;;;5013888;28;21092;-71
2021/08/30 07:15:41;;;;;;;18.30;11.50;;;;;;;;;;5017408;28;20460;-71
2021/08/30 07:18:06;;;;;;;15.97;11.10;;;;;;;;;;5010184;28;20404;-68
2021/08/30 07:20:31;;;;;;;15.93;10.93;;;;;;;;;;5010617;28;20898;-70
2021/08/30 07:22:56;;;;;;;17.73;11.97;;;;;;;;;;5010726;28;20428;-71
2021/08/30 07:25:22;;;;;;;12.63;10.73;;;;;;;;;;5010616;28;20903;-71
2021/08/30 07:27:48;;;;;;;12.73;10.27;;;;;;;;;;5013135;28;20450;-70
2021/08/30 07:30:13;;;;;;;17.00;11.07;;;;;;;;;;5013863;28;20633;-70
2021/08/30 07:32:39;;;;;;;16.73;11.73;;;;;;;;;;5014134;28;20214;-71
2021/08/30 07:35:04;;;;;;;16.77;11.50;;;;;;;;;;5014056;28;20277;-70
2021/08/30 07:37:29;;;;;;;16.67;11.57;;;;;;;;;;5013909;28;20638;-71
2021/08/30 07:39:54;;;;;;;16.77;9.98;;;;;;;;;;5013695;28;20209;-71
2021/08/30 07:42:20;;;;;;;19.42;11.52;;;;;;;;;;5013897;28;20175;-70
2021/08/30 07:44:45;;;;;;;15.27;10.88;;;;;;;;;;5018412;28;20338;-70
2021/08/30 07:47:10;;;;;;;17.90;11.88;;;;;;;;;;5019505;28;20224;-70
2021/08/30 07:49:35;;;;;;;17.47;11.93;;;;;;;;;;5017963;28;20270;-70
2021/08/30 07:52:00;;;;;;;18.77;11.80;;;;;;;;;;5017553;28;20979;-69
2021/08/30 07:54:26;;;;;;;15.15;11.02;;;;;;;;;;5016517;28;20416;-71
2021/08/30 07:56:51;;;;;;;22.23;12.27;;;;;;;;;;5017491;28;20273;-70
2021/08/30 07:59:16;;;;;;;16.45;10.93;;;;;;;;;;5015682;28;20187;-70
2021/08/30 08:01:41;;;;;;;18.60;11.98;;;;;;;;;;5018680;28;20181;-71
2021/08/30 08:04:06;;;;;;;18.02;12.15;;;;;;;;;;5014835;28;20656;-71
2021/08/30 08:06:32;;;;;;;16.67;10.97;;;;;;;;;;4997923;23;20289;-67
2021/08/30 08:08:57;;;;;;;19.40;11.20;;;;;;;;;;4993292;28;20492;-68
2021/08/30 08:11:22;;;;;;;14.90;11.00;;;;;;;;;;4994110;28;20203;-67
2021/08/30 08:13:47;;;;;;;18.85;12.25;;;;;;;;;;4993818;28;20176;-68
2021/08/30 08:16:13;;;;;;;16.40;10.98;;;;;;;;;;5001637;28;20624;-68
2021/08/30 08:18:38;;;;;;;16.77;10.52;;;;;;;;;;5002420;28;20664;-68
2021/08/30 08:21:04;;;;;;;15.50;10.73;;;;;;;;;;5002385;28;20208;-70
2021/08/30 08:23:30;;;;;;;14.90;9.90;;;;;;;;;;5005142;28;20409;-68
2021/08/30 08:25:55;;;;;;;14.10;9.80;;;;;;;;;;5000389;28;20203;-68
2021/08/30 08:28:20;;;;;;;17.65;10.05;;;;;;;;;;5004761;28;20246;-68
2021/08/30 08:30:46;;;;;;;15.80;9.50;;;;;;;;;;5003356;28;20181;-68
2021/08/30 08:33:12;;;;;;;17.15;9.55;;;;;;;;;;5003533;28;20515;-68
2021/08/30 08:35:40;;;;;;;13.20;8.27;;;;;;;;;;5006437;28;20191;-68
2021/08/30 08:38:05;;;;;;;12.45;8.18;;;;;;;;;;4998928;28;20545;-68
2021/08/30 08:40:30;;;;;;;12.82;7.20;;;;;;;;;;5005698;28;20171;-68
2021/08/30 08:42:55;;;;;;;16.80;7.43;;;;;;;;;;4995951;28;20225;-68
2021/08/30 08:45:21;;;;;;;11.30;7.10;;;;;;;;;;5005636;28;20815;-68
2021/08/30 08:47:46;;;;;;;14.07;6.72;;;;;;;;;;5000669;28;20424;-68
2021/08/30 08:50:13;;;;;;;13.40;6.97;;;;;;;;;;5005949;28;20179;-68
2021/08/30 08:52:39;;;;;;;15.10;7.43;;;;;;;;;;5005923;28;20210;-70
2021/08/30 08:55:04;;;;;;;11.45;6.82;;;;;;;;;;5003414;28;20170;-68
2021/08/30 08:57:30;;;;;;;9.13;6.70;;;;;;;;;;4998564;28;20880;-68
2021/08/30 08:59:56;;;;;;;10.75;7.22;;;;;;;;;;5003908;28;20190;-68
2021/08/30 09:02:26;;;;;;;13.57;7.13;;;;;;;;;;4999831;28;20172;-68
2021/08/30 09:04:53;;;;;;;13.43;7.18;;;;;;;;;;4998216;28;20187;-69
2021/08/30 09:07:19;;;;;;;17.38;7.35;;;;;;;;;;5000969;28;20211;-69
2021/08/30 09:09:44;;;;;;;10.03;6.80;;;;;;;;;;5004507;28;20216;-68
2021/08/30 09:12:19;;;;;;;14.65;6.70;;;;;;;;;;5001335;28;20939;-68
2021/08/30 09:14:45;;;;;;;12.05;6.55;;;;;;;;;;5004240;28;20182;-68
2021/08/30 09:17:10;;;;;;;13.98;6.53;;;;;;;;;;5000677;28;20211;-67
2021/08/30 09:19:36;;;;;;;12.13;6.05;;;;;;;;;;5003423;28;20185;-68
2021/08/30 09:22:02;;;;;;;9.20;6.75;;;;;;;;;;5002980;28;20190;-68
2021/08/30 09:24:28;;;;;;;15.80;7.75;;;;;;;;;;5003935;28;20171;-67
2021/08/30 09:26:53;;;;;;;13.13;7.50;;;;;;;;;;5000037;28;20214;-68
2021/08/30 09:29:20;;;;;;;11.68;7.03;;;;;;;;;;5002816;28;20652;-68
2021/08/30 09:32:17;;;;;;;9.07;6.50;;;;;;;;;;5001900;28;20212;-67
2021/08/30 09:34:44;;;;;;;11.65;7.25;;;;;;;;;;4949437;28;20183;-69
2021/08/30 09:37:18;;;;;;;13.00;6.85;;;;;;;;;;5002049;28;20199;-68
2021/08/30 09:39:50;;;;;;;11.30;6.80;;;;;;;;;;5002881;28;20589;-68
2021/08/30 09:42:16;;;;;;;9.82;7.00;;;;;;;;;;4999147;28;20179;-68
2021/08/30 09:44:41;;;;;;;10.30;6.88;;;;;;;;;;5000104;28;20188;-68
2021/08/30 09:47:17;;;;;;;14.23;6.63;;;;;;;;;;5000443;28;20290;-68
2021/08/30 09:49:46;;;;;;;11.55;6.40;;;;;;;;;;4976196;28;20448;-69
2021/08/30 09:52:11;;;;;;;11.93;6.95;;;;;;;;;;5005053;28;20225;-69
2021/08/30 09:54:36;;;;;;;10.27;6.70;;;;;;;;;;4998604;28;20258;-68
2021/08/30 09:57:02;;;;;;;11.33;7.47;;;;;;;;;;5005579;28;20429;-69
2021/08/30 09:59:28;;;;;;;10.30;5.97;;;;;;;;;;4997999;28;20457;-68
2021/08/30 10:01:54;;;;;;;8.85;6.22;;;;;;;;;;4998206;28;20261;-69
2021/08/30 10:04:20;;;;;;;11.50;6.40;;;;;;;;;;4999961;28;20180;-69
2021/08/30 10:06:47;;;;;;;9.65;6.55;;;;;;;;;;5002787;28;20245;-69
2021/08/30 10:09:14;;;;;;;8.93;5.80;;;;;;;;;;4998314;28;20552;-68
2021/08/30 10:11:39;;;;;;;8.88;5.47;;;;;;;;;;5002802;28;20226;-69
2021/08/30 10:14:08;;;;;;;8.70;5.80;;;;;;;;;;4995756;28;20211;-68
2021/08/30 10:16:34;;;;;;;12.60;5.35;;;;;;;;;;5001368;28;20242;-68
2021/08/30 10:19:00;;;;;;;10.10;5.68;;;;;;;;;;4999031;28;20583;-68
2021/08/30 10:21:26;;;;;;;9.13;6.25;;;;;;;;;;4980997;28;20179;-68
2021/08/30 10:23:51;;;;;;;6.88;5.15;;;;;;;;;;5002361;28;20183;-68
2021/08/30 10:26:17;;;;;;;10.23;6.00;;;;;;;;;;4998602;28;20199;-69
2021/08/30 10:28:46;;;;;;;10.45;6.35;;;;;;;;;;5005383;28;20183;-69
2021/08/30 10:31:14;;;;;;;7.78;5.95;;;;;;;;;;4996656;28;20175;-69
2021/08/30 10:33:39;;;;;;;9.10;5.82;;;;;;;;;;4995117;28;20167;-68
2021/08/30 10:36:14;;;;;;;10.48;5.65;;;;;;;;;;4994907;28;20238;-68
2021/08/30 10:38:39;;;;;;;9.40;5.95;;;;;;;;;;5000879;28;20181;-68
2021/08/30 10:41:13;;;;;;;11.18;6.50;;;;;;;;;;4995052;28;20175;-68
2021/08/30 10:43:41;;;;;;;8.30;6.13;;;;;;;;;;5001176;28;20663;-68
2021/08/30 10:46:12;;;;;;;8.93;6.32;;;;;;;;;;4996768;28;20199;-67
2021/08/30 10:48:39;;;;;;;8.30;5.75;;;;;;;;;;5005010;28;20207;-68
2021/08/30 10:51:11;;;;;;;7.78;5.88;;;;;;;;;;5000392;28;20183;-68
2021/08/30 10:53:37;;;;;;;9.50;5.75;;;;;;;;;;5003191;28;20190;-67
2021/08/30 10:56:07;;;;;;;7.60;6.20;;;;;;;;;;5000071;28;20195;-68
2021/08/30 10:58:32;;;;;;;7.07;5.55;;;;;;;;;;5000635;28;20175;-68
2021/08/30 11:00:57;;;;;;;10.57;6.17;;;;;;;;;;5000970;28;20237;-69
2021/08/30 11:03:26;;;;;;;8.00;5.50;;;;;;;;;;5009009;28;20401;-69
2021/08/30 11:05:58;;;;;;;8.23;5.60;;;;;;;;;;4998629;28;20570;-69
2021/08/30 11:08:24;;;;;;;7.10;5.57;;;;;;;;;;4999527;28;20259;-66
2021/08/30 11:10:49;;;;;;;9.65;6.80;;;;;;;;;;5002960;28;20207;-67
2021/08/30 11:13:23;;;;;;;10.13;5.17;;;;;;;;;;5002191;28;20212;-68
2021/08/30 11:15:48;;;;;;;6.82;5.43;;;;;;;;;;5004217;28;20268;-68
2021/08/30 11:18:16;;;;;;;6.75;5.07;;;;;;;;;;5006750;28;20175;-68
2021/08/30 11:20:46;;;;;;;12.48;6.25;;;;;;;;;;5001686;28;20563;-69
2021/08/30 11:23:12;;;;;;;7.82;5.80;;;;;;;;;;5006500;28;20735;-68
2021/08/30 11:25:37;;;;;;;7.95;5.85;;;;;;;;;;5004094;28;20289;-68
2021/08/30 11:28:12;;;;;;;8.50;5.70;;;;;;;;;;4988278;28;20177;-68
2021/08/30 11:30:37;;;;;;;10.43;5.68;;;;;;;;;;5005870;28;20411;-69
2021/08/30 11:33:02;;;;;;;11.30;5.70;;;;;;;;;;5005199;28;20256;-68
2021/08/30 11:35:27;;;;;;;12.50;6.88;;;;;;;;;;5006250;28;20487;-68
2021/08/30 11:37:52;;;;;;;6.83;5.07;;;;;;;;;;5004502;28;20171;-68
2021/08/30 11:40:18;;;;;;;10.13;6.10;;;;;;;;;;5003756;28;20467;-67
2021/08/30 11:42:43;;;;;;;10.18;5.78;;;;;;;;;;4995645;28;20416;-68
2021/08/30 11:45:09;;;;;;;11.73;6.13;;;;;;;;;;4986327;28;20198;-68
2021/08/30 11:47:35;;;;;;;6.78;5.35;;;;;;;;;;5004635;28;20184;-68
2021/08/30 11:50:01;;;;;;;10.45;5.93;;;;;;;;;;5000990;28;20559;-68
2021/08/30 11:52:31;;;;;;;8.32;5.72;;;;;;;;;;5006288;28;20242;-68
2021/08/30 11:54:58;;;;;;;10.98;5.00;;;;;;;;;;5006977;28;20584;-68
2021/08/30 11:57:24;;;;;;;8.70;5.15;;;;;;;;;;5002336;28;20183;-69
2021/08/30 11:59:50;;;;;;;6.53;4.78;;;;;;;;;;5004373;28;20564;-68
2021/08/30 12:02:16;;;;;;;7.75;4.63;;;;;;;;;;5004462;28;20665;-69
2021/08/30 12:04:41;;;;;;;8.10;4.90;;;;;;;;;;4999610;28;20273;-69
2021/08/30 12:07:08;;;;;;;4.88;3.80;;;;;;;;;;4985218;28;20715;-68
2021/08/30 12:09:39;;;;;;;6.32;4.60;;;;;;;;;;5005489;28;20226;-68
2021/08/30 12:12:10;;;;;;;7.70;4.90;;;;;;;;;;5000579;28;20206;-68
2021/08/30 12:14:35;;;;;;;6.95;4.78;;;;;;;;;;5005648;28;20246;-68
2021/08/30 12:17:01;;;;;;;7.40;4.93;;;;;;;;;;5004313;28;20227;-69
2021/08/30 12:19:27;;;;;;;9.25;4.68;;;;;;;;;;5004635;28;20178;-68
2021/08/30 12:21:52;;;;;;;6.00;4.28;;;;;;;;;;5004383;28;20172;-68
2021/08/30 12:24:19;;;;;;;5.45;4.38;;;;;;;;;;4987158;28;20234;-68
2021/08/30 12:26:45;;;;;;;8.85;4.65;;;;;;;;;;5001323;28;20258;-68
2021/08/30 12:29:11;;;;;;;10.00;4.70;;;;;;;;;;5008789;28;20183;-69
2021/08/30 12:31:36;;;;;;;7.50;4.60;;;;;;;;;;5001571;28;20607;-68
2021/08/30 12:34:06;;;;;;;4.60;4.07;;;;;;;;;;5007951;28;20250;-69
2021/08/30 12:36:32;;;;;;;7.28;4.53;;;;;;;;;;5001703;28;20187;-68
2021/08/30 12:38:57;;;;;;;5.93;3.50;;;;;;;;;;5005729;28;20261;-69
2021/08/30 12:41:22;;;;;;;5.18;3.80;;;;;;;;;;4998397;28;20214;-68
2021/08/30 12:43:48;;;;;;;6.93;4.00;;;;;;;;;;5004859;28;20183;-68
2021/08/30 12:46:14;;;;;;;4.15;3.47;;;;;;;;;;5000791;28;20449;-68
2021/08/30 12:48:39;;;;;;;4.68;3.22;;;;;;;;;;5002662;28;20190;-68
2021/08/30 12:51:04;;;;;;;4.87;3.47;;;;;;;;;;5003739;28;20633;-67
2021/08/30 12:53:30;;;;;;;5.60;3.33;;;;;;;;;;5004549;28;20216;-68
2021/08/30 12:55:55;;;;;;;5.10;3.70;;;;;;;;;;5003240;28;20440;-69
2021/08/30 12:58:20;;;;;;;4.25;3.45;;;;;;;;;;4986638;28;20179;-68
2021/08/30 13:00:46;;;;;;;4.90;3.10;;;;;;;;;;5000893;28;20262;-68
2021/08/30 13:03:11;;;;;;;4.50;3.53;;;;;;;;;;5002805;28;20176;-68
2021/08/30 13:05:39;;;;;;;6.97;3.20;;;;;;;;;;5002028;28;20242;-68
2021/08/30 13:08:04;;;;;;;4.68;3.50;;;;;;;;;;5002424;28;20187;-68
2021/08/30 13:10:30;;;;;;;4.88;3.65;;;;;;;;;;5007353;28;20183;-68
2021/08/30 13:12:55;;;;;;;7.53;3.88;;;;;;;;;;5001357;28;20286;-69
2021/08/30 13:15:21;;;;;;;4.35;3.85;;;;;;;;;;5007121;28;20195;-69
2021/08/30 13:17:47;;;;;;;4.60;3.92;;;;;;;;;;5001220;28;20187;-69
2021/08/30 13:20:12;;;;;;;4.88;3.38;;;;;;;;;;5005235;28;20175;-68
2021/08/30 13:22:41;;;;;;;6.90;3.50;;;;;;;;;;5004972;28;20252;-68
2021/08/30 13:25:11;;;;;;;4.28;3.55;;;;;;;;;;5003103;28;20264;-68
2021/08/30 13:27:37;;;;;;;4.55;3.45;;;;;;;;;;5002484;28;20183;-69
2021/08/30 13:30:02;;;;;;;4.65;3.25;;;;;;;;;;5003504;28;20287;-68
2021/08/30 13:32:27;;;;;;;5.40;3.20;;;;;;;;;;5001824;28;20202;-68
2021/08/30 13:34:52;;;;;;;5.03;3.50;;;;;;;;;;5002835;28;20657;-68
2021/08/30 13:37:18;;;;;;;3.30;3.00;;;;;;;;;;5004751;28;20194;-69
2021/08/30 13:39:43;;;;;;;3.80;3.25;;;;;;;;;;4981696;28;20194;-69
2021/08/30 13:42:08;;;;;;;6.00;3.63;;;;;;;;;;5000495;28;20190;-69
2021/08/30 13:44:33;;;;;;;3.88;3.10;;;;;;;;;;5001248;28;20293;-69
2021/08/30 13:46:59;;;;;;;3.95;2.88;;;;;;;;;;5002068;28;20204;-69
2021/08/30 13:49:24;;;;;;;3.87;2.73;;;;;;;;;;4998885;28;20171;-69
2021/08/30 13:51:49;;;;;;;4.32;3.20;;;;;;;;;;5000205;28;20465;-69
2021/08/30 13:54:15;;;;;;;4.43;3.50;;;;;;;;;;5005482;28;20748;-69
2021/08/30 13:56:41;;;;;;;4.07;2.90;;;;;;;;;;4998775;28;20238;-69
2021/08/30 13:59:06;;;;;;;4.77;3.73;;;;;;;;;;4999348;28;20175;-69
2021/08/30 14:01:31;;;;;;;7.30;3.33;;;;;;;;;;5003407;28;20911;-69
2021/08/30 14:03:56;;;;;;;4.45;3.40;;;;;;;;;;4998847;28;20180;-69
2021/08/30 14:06:22;;;;;;;5.88;3.20;;;;;;;;;;5016251;23;20242;-71
2021/08/30 14:08:47;;;;;;;5.43;3.43;;;;;;;;;;5010822;28;20207;-71
2021/08/30 14:11:12;;;;;;;9.40;4.07;;;;;;;;;;5011642;28;20416;-70
2021/08/30 14:13:37;;;;;;;4.13;3.40;;;;;;;;;;5011273;28;20436;-71
2021/08/30 14:16:03;;;;;;;7.00;3.80;;;;;;;;;;5011400;28;20206;-72
2021/08/30 14:18:28;;;;;;;5.47;3.92;;;;;;;;;;5010446;28;20224;-71
2021/08/30 14:20:53;;;;;;;5.93;3.33;;;;;;;;;;5011679;28;20182;-71
2021/08/30 14:23:19;;;;;;;5.73;3.63;;;;;;;;;;5011140;28;20552;-71
2021/08/30 14:25:44;;;;;;;6.82;3.58;;;;;;;;;;5011088;28;20953;-70
2021/08/30 14:28:09;;;;;;;5.57;3.25;;;;;;;;;;5011078;28;20171;-71